Time;durP1;ratioP1;P1;durP2;ratioP2;P2;SDS_P1;SDS_P2;PMS_P1;PMS_P2;Temp;Humidity;BMP_temperature;BMP_pressure;BME280_temperature;BME280_humidity;BME280_pressure;Samples;Min_cycle;Max_cycle;Signal;HPM_P1;HPM_P2
2023/03/08 00:01:12;;;;;;;1.88;1.67;;;;;;;;;;5119731;28;20235;-61
2023/03/08 00:03:39;;;;;;;1.70;1.60;;;;;;;;;;5119600;28;20700;-61
2023/03/08 00:06:07;;;;;;;1.83;1.63;;;;;;;;;;5119955;28;20260;-61
2023/03/08 00:08:35;;;;;;;1.40;1.30;;;;;;;;;;5119112;28;20210;-61
2023/03/08 00:11:05;;;;;;;2.20;1.60;;;;;;;;;;5119604;28;20252;-61
2023/03/08 00:13:34;;;;;;;2.00;1.70;;;;;;;;;;5119613;28;20484;-61
2023/03/08 00:16:01;;;;;;;2.10;1.48;;;;;;;;;;5119837;28;20306;-61
2023/03/08 00:18:29;;;;;;;1.52;1.35;;;;;;;;;;5120124;28;20215;-61
2023/03/08 00:20:59;;;;;;;1.50;1.38;;;;;;;;;;5119516;28;20266;-61
2023/03/08 00:23:27;;;;;;;1.60;1.50;;;;;;;;;;5119767;28;20664;-61
2023/03/08 00:25:55;;;;;;;1.73;1.30;;;;;;;;;;5120085;28;20293;-61
2023/03/08 00:28:22;;;;;;;1.60;1.40;;;;;;;;;;5119517;28;20294;-61
2023/03/08 00:30:57;;;;;;;1.35;1.25;;;;;;;;;;5119499;28;20210;-61
2023/03/08 00:33:25;;;;;;;1.30;1.20;;;;;;;;;;5138925;27;20222;-61
2023/03/08 00:35:55;;;;;;;1.45;1.25;;;;;;;;;;5139860;27;20208;-61
2023/03/08 00:38:23;;;;;;;1.45;1.35;;;;;;;;;;5140365;27;20301;-61
2023/03/08 00:40:50;;;;;;;1.20;1.10;;;;;;;;;;5139797;27;20241;-61
2023/03/08 00:43:18;;;;;;;1.20;1.10;;;;;;;;;;5139738;27;20229;-60
2023/03/08 00:45:45;;;;;;;1.40;1.23;;;;;;;;;;5140072;27;20204;-61
2023/03/08 00:48:14;;;;;;;1.30;1.20;;;;;;;;;;5139588;27;20251;-61
2023/03/08 00:50:42;;;;;;;1.33;1.23;;;;;;;;;;5139670;27;20292;-61
2023/03/08 00:53:09;;;;;;;1.50;1.20;;;;;;;;;;5139513;27;20288;-62
2023/03/08 00:55:36;;;;;;;1.65;1.10;;;;;;;;;;5139585;27;20237;-61
2023/03/08 00:58:04;;;;;;;1.27;1.17;;;;;;;;;;5139344;27;20199;-61
2023/03/08 01:00:32;;;;;;;1.23;1.05;;;;;;;;;;5138787;27;20647;-61
2023/03/08 01:02:59;;;;;;;1.20;1.00;;;;;;;;;;5139196;27;20230;-61
2023/03/08 01:05:28;;;;;;;0.90;0.90;;;;;;;;;;5139098;27;20308;-61
2023/03/08 01:07:56;;;;;;;1.08;0.98;;;;;;;;;;5124662;27;20195;-61
2023/03/08 01:10:23;;;;;;;1.08;0.98;;;;;;;;;;5118218;28;20297;-61
2023/03/08 01:12:51;;;;;;;1.38;1.05;;;;;;;;;;5118322;28;20198;-61
2023/03/08 01:15:18;;;;;;;1.10;1.00;;;;;;;;;;5118419;28;20678;-61
2023/03/08 01:17:46;;;;;;;0.88;0.85;;;;;;;;;;5123133;27;20593;-61
2023/03/08 01:20:13;;;;;;;1.30;0.98;;;;;;;;;;5138120;27;20585;-60
2023/03/08 01:22:42;;;;;;;1.00;0.88;;;;;;;;;;5139142;27;20220;-64
2023/03/08 01:25:10;;;;;;;1.00;0.90;;;;;;;;;;5138677;27;20634;-62
2023/03/08 01:27:38;;;;;;;0.70;0.70;;;;;;;;;;5138550;27;20238;-62
2023/03/08 01:30:05;;;;;;;0.82;0.82;;;;;;;;;;5139523;27;20242;-60
2023/03/08 01:32:33;;;;;;;1.00;0.73;;;;;;;;;;5138512;27;20253;-60
2023/03/08 01:35:02;;;;;;;0.82;0.82;;;;;;;;;;5139602;27;20216;-60
2023/03/08 01:37:29;;;;;;;1.05;0.95;;;;;;;;;;5139008;27;20202;-60
2023/03/08 01:39:58;;;;;;;0.68;0.68;;;;;;;;;;5139464;27;20520;-62
2023/03/08 01:42:26;;;;;;;0.98;0.70;;;;;;;;;;5139229;27;20201;-61
2023/03/08 01:44:54;;;;;;;0.88;0.88;;;;;;;;;;5125643;28;20254;-61
2023/03/08 01:47:24;;;;;;;0.75;0.70;;;;;;;;;;5118315;28;20211;-60
2023/03/08 01:49:52;;;;;;;0.90;0.80;;;;;;;;;;5118615;28;20239;-61
2023/03/08 01:52:22;;;;;;;0.85;0.70;;;;;;;;;;5118205;28;20213;-61
2023/03/08 01:54:52;;;;;;;0.85;0.85;;;;;;;;;;5121580;28;20277;-60
2023/03/08 01:57:22;;;;;;;0.60;0.60;;;;;;;;;;5137824;28;20289;-60
2023/03/08 01:59:50;;;;;;;0.50;0.50;;;;;;;;;;5139118;28;20296;-60
2023/03/08 02:02:20;;;;;;;0.73;0.70;;;;;;;;;;5122051;28;20199;-60
2023/03/08 02:04:48;;;;;;;0.52;0.52;;;;;;;;;;5118288;28;20622;-63
2023/03/08 02:07:16;;;;;;;1.13;0.70;;;;;;;;;;5118301;28;20306;-60
2023/03/08 02:09:43;;;;;;;0.77;0.77;;;;;;;;;;5118101;28;20263;-61
2023/03/08 02:12:12;;;;;;;0.60;0.50;;;;;;;;;;5118692;28;20207;-62
2023/03/08 02:14:42;;;;;;;0.60;0.60;;;;;;;;;;5136095;28;20492;-61
2023/03/08 02:17:09;;;;;;;0.60;0.60;;;;;;;;;;5138834;28;20312;-61
2023/03/08 02:19:42;;;;;;;0.63;0.63;;;;;;;;;;5138072;28;20202;-60
2023/03/08 02:22:10;;;;;;;0.57;0.57;;;;;;;;;;5138256;28;20218;-60
2023/03/08 02:24:39;;;;;;;0.60;0.60;;;;;;;;;;5138987;28;20614;-60
2023/03/08 02:27:07;;;;;;;0.70;0.70;;;;;;;;;;5137718;28;20202;-60
2023/03/08 02:29:35;;;;;;;0.73;0.73;;;;;;;;;;5138327;28;20198;-60
2023/03/08 02:32:03;;;;;;;0.50;0.50;;;;;;;;;;5140191;27;20276;-60
2023/03/08 02:34:30;;;;;;;0.60;0.60;;;;;;;;;;5127520;27;20195;-60
2023/03/08 02:36:57;;;;;;;0.63;0.63;;;;;;;;;;5122104;28;20625;-61
2023/03/08 02:39:25;;;;;;;0.60;0.60;;;;;;;;;;5122236;28;20593;-60
2023/03/08 02:41:54;;;;;;;0.47;0.47;;;;;;;;;;5122375;28;20302;-60
2023/03/08 02:44:21;;;;;;;0.68;0.68;;;;;;;;;;5121949;28;20693;-60
2023/03/08 02:46:48;;;;;;;0.80;0.80;;;;;;;;;;5137486;27;20289;-60
2023/03/08 02:49:16;;;;;;;0.55;0.55;;;;;;;;;;5141853;27;20605;-60
2023/03/08 02:51:44;;;;;;;0.60;0.60;;;;;;;;;;5142018;27;20688;-61
2023/03/08 02:54:11;;;;;;;0.80;0.55;;;;;;;;;;5142116;27;20216;-62
2023/03/08 02:56:39;;;;;;;0.70;0.70;;;;;;;;;;5141996;27;20210;-61
2023/03/08 02:59:07;;;;;;;0.50;0.50;;;;;;;;;;5141740;27;20559;-67
2023/03/08 03:01:35;;;;;;;0.70;0.70;;;;;;;;;;5142120;27;20352;-62
2023/03/08 03:04:02;;;;;;;0.70;0.70;;;;;;;;;;5142079;27;20226;-61
2023/03/08 03:06:30;;;;;;;0.70;0.70;;;;;;;;;;5142062;27;20212;-61
2023/03/08 03:08:57;;;;;;;0.70;0.70;;;;;;;;;;5141551;27;20305;-61
2023/03/08 03:11:25;;;;;;;0.73;0.57;;;;;;;;;;5142162;27;20202;-62
2023/03/08 03:13:55;;;;;;;0.70;0.70;;;;;;;;;;5141427;27;20230;-61
2023/03/08 03:16:25;;;;;;;0.60;0.60;;;;;;;;;;5141795;27;20206;-61
2023/03/08 03:18:53;;;;;;;0.60;0.60;;;;;;;;;;5141570;27;20202;-61
2023/03/08 03:21:20;;;;;;;0.70;0.70;;;;;;;;;;5141413;27;20213;-61
2023/03/08 03:23:48;;;;;;;0.60;0.60;;;;;;;;;;5141197;27;20316;-61
2023/03/08 03:26:17;;;;;;;0.63;0.63;;;;;;;;;;5141222;27;20308;-61
2023/03/08 03:28:44;;;;;;;0.70;0.70;;;;;;;;;;5141097;27;20503;-61
2023/03/08 03:31:13;;;;;;;0.60;0.60;;;;;;;;;;5140866;27;20210;-61
2023/03/08 03:33:42;;;;;;;0.80;0.80;;;;;;;;;;5141065;27;20335;-61
2023/03/08 03:36:11;;;;;;;0.63;0.60;;;;;;;;;;5141051;27;20582;-61
2023/03/08 03:38:38;;;;;;;0.85;0.80;;;;;;;;;;5141241;27;20457;-60
2023/03/08 03:41:07;;;;;;;0.70;0.70;;;;;;;;;;5141125;27;20238;-61
2023/03/08 03:43:35;;;;;;;0.80;0.80;;;;;;;;;;5140330;27;20312;-61
2023/03/08 03:46:03;;;;;;;0.73;0.70;;;;;;;;;;5141405;27;20212;-61
2023/03/08 03:48:31;;;;;;;0.85;0.57;;;;;;;;;;5141246;27;20206;-61
2023/03/08 03:51:00;;;;;;;0.60;0.60;;;;;;;;;;5140722;27;20202;-61
2023/03/08 03:53:28;;;;;;;0.73;0.73;;;;;;;;;;5141006;27;20304;-61
2023/03/08 03:55:55;;;;;;;0.70;0.70;;;;;;;;;;5140655;27;20266;-60
2023/03/08 03:58:23;;;;;;;0.60;0.60;;;;;;;;;;5140729;27;20303;-61
2023/03/08 04:00:51;;;;;;;0.68;0.68;;;;;;;;;;5139150;27;20277;-61
2023/03/08 04:03:18;;;;;;;0.60;0.60;;;;;;;;;;5139769;27;20292;-61
2023/03/08 04:05:45;;;;;;;0.70;0.70;;;;;;;;;;5136194;27;20282;-61
2023/03/08 04:08:15;;;;;;;0.68;0.63;;;;;;;;;;5119622;28;20293;-61
2023/03/08 04:10:42;;;;;;;0.60;0.60;;;;;;;;;;5120121;28;20211;-61
2023/03/08 04:13:10;;;;;;;0.50;0.50;;;;;;;;;;5119773;28;20203;-61
2023/03/08 04:15:38;;;;;;;0.70;0.70;;;;;;;;;;5120189;28;20206;-61
2023/03/08 04:18:05;;;;;;;0.50;0.50;;;;;;;;;;5125442;27;20259;-61
2023/03/08 04:20:33;;;;;;;0.70;0.70;;;;;;;;;;5139806;27;20324;-61
2023/03/08 04:23:00;;;;;;;0.77;0.77;;;;;;;;;;5139730;27;20265;-61
2023/03/08 04:25:29;;;;;;;0.63;0.63;;;;;;;;;;5140041;27;20659;-61
2023/03/08 04:27:57;;;;;;;0.60;0.60;;;;;;;;;;5139339;27;20209;-61
2023/03/08 04:30:24;;;;;;;0.52;0.52;;;;;;;;;;5139713;27;20238;-61
2023/03/08 04:32:52;;;;;;;0.70;0.70;;;;;;;;;;5139634;27;20242;-61
2023/03/08 04:35:20;;;;;;;0.63;0.63;;;;;;;;;;5138137;27;20273;-61
2023/03/08 04:37:47;;;;;;;0.60;0.60;;;;;;;;;;5139221;27;20206;-61
2023/03/08 04:40:14;;;;;;;0.60;0.60;;;;;;;;;;5139789;27;20285;-61
2023/03/08 04:42:43;;;;;;;0.73;0.73;;;;;;;;;;5119086;28;20211;-60
2023/03/08 04:45:11;;;;;;;0.50;0.50;;;;;;;;;;5119211;28;20330;-61
2023/03/08 04:47:39;;;;;;;0.50;0.50;;;;;;;;;;5119612;28;20289;-60
2023/03/08 04:50:07;;;;;;;0.50;0.50;;;;;;;;;;5119067;28;20282;-60
2023/03/08 04:52:34;;;;;;;0.70;0.70;;;;;;;;;;5120257;27;20301;-62
2023/03/08 04:55:01;;;;;;;0.55;0.55;;;;;;;;;;5138510;27;20301;-61
2023/03/08 04:57:29;;;;;;;0.60;0.60;;;;;;;;;;5139175;27;20293;-60
2023/03/08 04:59:57;;;;;;;0.63;0.60;;;;;;;;;;5139117;27;20293;-60
2023/03/08 05:02:25;;;;;;;0.65;0.65;;;;;;;;;;5139213;27;20252;-60
2023/03/08 05:04:52;;;;;;;0.60;0.60;;;;;;;;;;5139327;27;20276;-61
2023/03/08 05:07:20;;;;;;;0.50;0.50;;;;;;;;;;5139540;27;20261;-62
2023/03/08 05:09:47;;;;;;;0.43;0.43;;;;;;;;;;5139083;27;20572;-61
2023/03/08 05:12:15;;;;;;;0.60;0.60;;;;;;;;;;5139022;27;20249;-61
2023/03/08 05:14:42;;;;;;;0.50;0.50;;;;;;;;;;5138860;27;20594;-61
2023/03/08 05:17:11;;;;;;;0.63;0.60;;;;;;;;;;5137786;27;20216;-61
2023/03/08 05:19:39;;;;;;;0.60;0.60;;;;;;;;;;5137749;27;20555;-61
2023/03/08 05:22:06;;;;;;;0.50;0.50;;;;;;;;;;5126796;27;20281;-61
2023/03/08 05:24:34;;;;;;;0.60;0.60;;;;;;;;;;5138499;27;20221;-60
2023/03/08 05:27:01;;;;;;;0.55;0.55;;;;;;;;;;5138079;27;20240;-61
2023/03/08 05:29:28;;;;;;;0.73;0.60;;;;;;;;;;5138671;27;20202;-61
2023/03/08 05:31:57;;;;;;;0.50;0.50;;;;;;;;;;5138960;27;20265;-61
2023/03/08 05:34:26;;;;;;;0.55;0.55;;;;;;;;;;5138264;27;20205;-61
2023/03/08 05:36:53;;;;;;;0.50;0.50;;;;;;;;;;5138226;27;20301;-61
2023/03/08 05:39:21;;;;;;;0.60;0.60;;;;;;;;;;5138078;27;20202;-61
2023/03/08 05:41:48;;;;;;;0.68;0.68;;;;;;;;;;5138153;27;20496;-61
2023/03/08 05:44:16;;;;;;;0.70;0.70;;;;;;;;;;5138227;27;20611;-61
2023/03/08 05:46:44;;;;;;;0.60;0.60;;;;;;;;;;5136829;27;20319;-60
2023/03/08 05:49:11;;;;;;;0.60;0.60;;;;;;;;;;5137340;27;20213;-61
2023/03/08 05:51:40;;;;;;;0.50;0.50;;;;;;;;;;5137021;27;20194;-61
2023/03/08 05:54:07;;;;;;;0.60;0.60;;;;;;;;;;5136854;28;20720;-61
2023/03/08 05:56:35;;;;;;;0.60;0.60;;;;;;;;;;5137532;27;20202;-61
2023/03/08 05:59:03;;;;;;;0.70;0.63;;;;;;;;;;5137247;27;20292;-60
2023/03/08 06:01:30;;;;;;;0.60;0.60;;;;;;;;;;5136297;28;20568;-61
2023/03/08 06:03:58;;;;;;;0.77;0.77;;;;;;;;;;5136516;27;20289;-60
2023/03/08 06:06:27;;;;;;;0.55;0.55;;;;;;;;;;5138754;27;20231;-61
2023/03/08 06:08:56;;;;;;;0.80;0.80;;;;;;;;;;5141086;27;20202;-61
2023/03/08 06:11:23;;;;;;;0.70;0.70;;;;;;;;;;5140631;27;20276;-61
2023/03/08 06:13:50;;;;;;;0.73;0.73;;;;;;;;;;5140107;27;20478;-61
2023/03/08 06:16:18;;;;;;;0.73;0.73;;;;;;;;;;5140413;27;20301;-61
2023/03/08 06:18:45;;;;;;;0.70;0.70;;;;;;;;;;5140079;27;20202;-61
2023/03/08 06:21:14;;;;;;;0.90;0.85;;;;;;;;;;5140013;27;20244;-62
2023/03/08 06:23:41;;;;;;;0.63;0.60;;;;;;;;;;5139956;27;20533;-62
2023/03/08 06:26:10;;;;;;;1.10;0.98;;;;;;;;;;5139907;27;20520;-61
2023/03/08 06:28:39;;;;;;;0.98;0.88;;;;;;;;;;5139218;27;20216;-61
2023/03/08 06:31:07;;;;;;;0.80;0.80;;;;;;;;;;5140103;27;20202;-61
2023/03/08 06:33:34;;;;;;;0.68;0.68;;;;;;;;;;5119331;28;20256;-60
2023/03/08 06:36:03;;;;;;;0.77;0.77;;;;;;;;;;5119040;28;20291;-61
2023/03/08 06:38:31;;;;;;;0.85;0.82;;;;;;;;;;5119350;28;20199;-60
2023/03/08 06:40:59;;;;;;;0.85;0.85;;;;;;;;;;5116929;28;20199;-61
2023/03/08 06:43:28;;;;;;;0.80;0.80;;;;;;;;;;5117591;28;20668;-61
2023/03/08 06:45:56;;;;;;;1.27;1.17;;;;;;;;;;5117904;28;20638;-61
2023/03/08 06:48:23;;;;;;;1.83;0.90;;;;;;;;;;5117759;28;20261;-60
2023/03/08 06:50:51;;;;;;;1.00;1.00;;;;;;;;;;5119001;28;20297;-61
2023/03/08 06:53:18;;;;;;;0.90;0.90;;;;;;;;;;5118250;28;20268;-61
2023/03/08 06:55:46;;;;;;;0.93;0.88;;;;;;;;;;5118374;28;20226;-61
2023/03/08 06:58:13;;;;;;;0.90;0.90;;;;;;;;;;5119205;28;20308;-61
2023/03/08 07:00:42;;;;;;;0.98;0.98;;;;;;;;;;5119017;28;20199;-61
2023/03/08 07:03:10;;;;;;;1.05;0.95;;;;;;;;;;5118440;28;20756;-61
2023/03/08 07:05:38;;;;;;;0.90;0.90;;;;;;;;;;5118270;28;20335;-60
2023/03/08 07:08:05;;;;;;;1.02;0.95;;;;;;;;;;5118572;28;20298;-61
2023/03/08 07:10:33;;;;;;;0.85;0.85;;;;;;;;;;5118820;28;20309;-61
2023/03/08 07:13:00;;;;;;;1.02;0.93;;;;;;;;;;5119084;28;20195;-61
2023/03/08 07:15:28;;;;;;;1.50;1.00;;;;;;;;;;5118674;28;20282;-62
2023/03/08 07:17:57;;;;;;;1.08;0.98;;;;;;;;;;5117466;28;20298;-61
2023/03/08 07:20:26;;;;;;;1.08;0.98;;;;;;;;;;5118568;28;20237;-61
2023/03/08 07:22:54;;;;;;;1.02;0.98;;;;;;;;;;5118816;28;20233;-60
2023/03/08 07:25:21;;;;;;;1.20;1.10;;;;;;;;;;5118198;28;20227;-61
2023/03/08 07:27:49;;;;;;;1.27;1.17;;;;;;;;;;5119212;28;20238;-61
2023/03/08 07:30:17;;;;;;;1.17;1.10;;;;;;;;;;5118819;28;20195;-61
2023/03/08 07:32:44;;;;;;;1.00;1.00;;;;;;;;;;5119152;27;20622;-60
2023/03/08 07:35:14;;;;;;;1.33;1.23;;;;;;;;;;5119329;28;20457;-60
2023/03/08 07:37:41;;;;;;;1.35;1.20;;;;;;;;;;5119036;28;20203;-61
2023/03/08 07:40:09;;;;;;;1.35;1.25;;;;;;;;;;5123725;27;20195;-61
2023/03/08 07:42:37;;;;;;;1.85;1.30;;;;;;;;;;5118589;28;20257;-61
2023/03/08 07:45:04;;;;;;;1.58;1.38;;;;;;;;;;5124563;27;20253;-61
2023/03/08 07:47:32;;;;;;;1.08;1.05;;;;;;;;;;5139186;27;20301;-61
2023/03/08 07:50:00;;;;;;;1.40;1.30;;;;;;;;;;5139675;27;20643;-61
2023/03/08 07:52:29;;;;;;;1.88;1.38;;;;;;;;;;5138365;27;20293;-61
2023/03/08 07:54:57;;;;;;;1.23;1.13;;;;;;;;;;5138464;27;20198;-61
2023/03/08 07:57:24;;;;;;;1.75;1.20;;;;;;;;;;5138241;27;20217;-61
2023/03/08 07:59:52;;;;;;;2.33;1.38;;;;;;;;;;5138138;27;20205;-61
2023/03/08 08:02:19;;;;;;;1.50;1.40;;;;;;;;;;5139224;27;20202;-61
2023/03/08 08:04:47;;;;;;;2.28;1.48;;;;;;;;;;5138275;27;20220;-60
2023/03/08 08:07:15;;;;;;;1.27;1.17;;;;;;;;;;5138644;27;20637;-61
2023/03/08 08:09:44;;;;;;;1.30;1.20;;;;;;;;;;5138322;27;20202;-61
2023/03/08 08:12:11;;;;;;;2.42;1.48;;;;;;;;;;5138509;27;20288;-60
2023/03/08 08:14:39;;;;;;;1.70;1.50;;;;;;;;;;5139103;27;20285;-60
2023/03/08 08:17:07;;;;;;;1.52;1.42;;;;;;;;;;5138506;27;20213;-61
2023/03/08 08:19:34;;;;;;;1.90;1.48;;;;;;;;;;5138530;27;20202;-61
2023/03/08 08:22:02;;;;;;;1.50;1.40;;;;;;;;;;5138377;27;20678;-61
2023/03/08 08:24:31;;;;;;;1.92;1.40;;;;;;;;;;5138608;27;20194;-67
2023/03/08 08:27:00;;;;;;;7.80;1.77;;;;;;;;;;5138145;27;20229;-62
2023/03/08 08:29:27;;;;;;;3.28;2.10;;;;;;;;;;5138343;27;20661;-62
2023/03/08 08:31:55;;;;;;;4.45;1.88;;;;;;;;;;5138318;27;20341;-64
2023/03/08 08:34:23;;;;;;;2.72;1.98;;;;;;;;;;5138358;27;20213;-62
2023/03/08 08:36:50;;;;;;;5.68;2.28;;;;;;;;;;5139187;27;20297;-62
2023/03/08 08:39:18;;;;;;;3.45;2.15;;;;;;;;;;5138422;27;20474;-63
2023/03/08 08:41:45;;;;;;;6.72;2.10;;;;;;;;;;5138299;27;20261;-62
2023/03/08 08:44:14;;;;;;;3.53;2.13;;;;;;;;;;5136805;27;20202;-62
2023/03/08 08:46:41;;;;;;;3.60;2.10;;;;;;;;;;5136790;27;20226;-62
2023/03/08 08:49:09;;;;;;;6.15;2.63;;;;;;;;;;5136810;27;20293;-62
2023/03/08 08:51:36;;;;;;;3.90;2.33;;;;;;;;;;5136908;27;20238;-62
2023/03/08 08:54:04;;;;;;;4.65;2.40;;;;;;;;;;5136596;27;20263;-62
2023/03/08 08:56:32;;;;;;;3.92;2.13;;;;;;;;;;5136558;27;20298;-62
2023/03/08 08:59:01;;;;;;;4.22;2.30;;;;;;;;;;5136666;27;20300;-62
2023/03/08 09:01:31;;;;;;;4.07;2.53;;;;;;;;;;5136550;27;20300;-62
2023/03/08 09:03:58;;;;;;;7.65;2.63;;;;;;;;;;5136779;27;20210;-62
2023/03/08 09:06:26;;;;;;;3.15;2.45;;;;;;;;;;5137684;27;20503;-62
2023/03/08 09:08:54;;;;;;;3.72;2.42;;;;;;;;;;5137105;27;20285;-62
2023/03/08 09:11:22;;;;;;;4.70;2.70;;;;;;;;;;5137277;27;20206;-62
2023/03/08 09:13:50;;;;;;;2.97;2.70;;;;;;;;;;5123034;27;20313;-62
2023/03/08 09:16:19;;;;;;;3.63;2.40;;;;;;;;;;5117370;28;20199;-62
2023/03/08 09:18:47;;;;;;;2.60;2.25;;;;;;;;;;5116502;28;20203;-62
2023/03/08 09:21:15;;;;;;;2.70;2.10;;;;;;;;;;5116778;28;20663;-62
2023/03/08 09:23:43;;;;;;;2.97;2.63;;;;;;;;;;5116892;28;20237;-62
2023/03/08 09:26:10;;;;;;;3.72;2.50;;;;;;;;;;5116950;28;20249;-62
2023/03/08 09:28:38;;;;;;;2.90;2.60;;;;;;;;;;5116833;28;20198;-62
2023/03/08 09:31:10;;;;;;;3.58;2.47;;;;;;;;;;5116759;28;20602;-62
2023/03/08 09:33:38;;;;;;;2.50;2.20;;;;;;;;;;5116140;28;20203;-62
2023/03/08 09:36:07;;;;;;;3.40;2.58;;;;;;;;;;5116081;28;20202;-62
2023/03/08 09:38:34;;;;;;;3.97;2.47;;;;;;;;;;5116346;28;20541;-62
2023/03/08 09:41:09;;;;;;;4.22;3.00;;;;;;;;;;5116191;28;20215;-62
2023/03/08 09:43:43;;;;;;;4.25;2.83;;;;;;;;;;5115220;28;20202;-63
2023/03/08 09:46:13;;;;;;;3.63;2.63;;;;;;;;;;5116351;28;20222;-62
2023/03/08 09:48:43;;;;;;;4.43;2.70;;;;;;;;;;5116477;28;20214;-62
2023/03/08 09:51:13;;;;;;;3.13;2.72;;;;;;;;;;5114713;28;20203;-63
2023/03/08 09:53:42;;;;;;;3.58;2.22;;;;;;;;;;5116669;28;20678;-62
2023/03/08 09:56:16;;;;;;;3.05;2.65;;;;;;;;;;5116266;28;20203;-63
2023/03/08 09:58:46;;;;;;;4.03;2.80;;;;;;;;;;5116479;28;20202;-62
2023/03/08 10:01:21;;;;;;;4.22;2.72;;;;;;;;;;5115925;28;20201;-63
2023/03/08 10:03:57;;;;;;;5.25;2.83;;;;;;;;;;5115190;28;20214;-64
2023/03/08 10:06:28;;;;;;;3.67;2.50;;;;;;;;;;5116138;28;20697;-63
2023/03/08 10:08:58;;;;;;;3.03;2.38;;;;;;;;;;5095682;28;20203;-62
2023/03/08 10:11:30;;;;;;;3.45;2.90;;;;;;;;;;5096607;28;20551;-62
2023/03/08 10:14:01;;;;;;;2.90;2.70;;;;;;;;;;5095680;28;20206;-62
2023/03/08 10:16:29;;;;;;;3.13;2.78;;;;;;;;;;5094813;28;20286;-62
2023/03/08 10:18:59;;;;;;;3.65;2.97;;;;;;;;;;5106972;28;20248;-63
2023/03/08 10:21:28;;;;;;;3.30;2.47;;;;;;;;;;5115557;28;20206;-62
2023/03/08 10:23:59;;;;;;;3.08;2.78;;;;;;;;;;5115898;28;20230;-62
2023/03/08 10:26:27;;;;;;;3.65;2.95;;;;;;;;;;5115217;28;20317;-62
2023/03/08 10:28:54;;;;;;;3.60;2.40;;;;;;;;;;5115247;28;20210;-62
2023/03/08 10:31:23;;;;;;;4.15;2.60;;;;;;;;;;5118128;28;20238;-62
2023/03/08 10:33:54;;;;;;;2.78;2.45;;;;;;;;;;5135710;27;20267;-63
2023/03/08 10:36:22;;;;;;;2.92;2.63;;;;;;;;;;5135675;27;20199;-62
2023/03/08 10:39:02;;;;;;;3.25;2.63;;;;;;;;;;5136162;27;20209;-62
2023/03/08 10:41:31;;;;;;;4.40;2.80;;;;;;;;;;5134827;27;20285;-62
2023/03/08 10:44:00;;;;;;;3.15;2.35;;;;;;;;;;5136205;27;20266;-62
2023/03/08 10:46:31;;;;;;;2.85;2.33;;;;;;;;;;5135511;27;20226;-63
2023/03/08 10:49:08;;;;;;;3.28;2.78;;;;;;;;;;5135497;27;20202;-63
2023/03/08 10:51:36;;;;;;;2.72;2.53;;;;;;;;;;5134825;27;20624;-63
2023/03/08 10:54:06;;;;;;;2.65;2.45;;;;;;;;;;5138099;27;20204;-61
2023/03/08 10:56:37;;;;;;;2.60;2.15;;;;;;;;;;5139218;27;20220;-62
2023/03/08 10:59:05;;;;;;;2.75;2.38;;;;;;;;;;5139557;27;20195;-62
2023/03/08 11:01:34;;;;;;;3.60;2.50;;;;;;;;;;5139062;27;20481;-62
2023/03/08 11:04:02;;;;;;;3.45;2.58;;;;;;;;;;5138553;27;20281;-62
2023/03/08 11:06:29;;;;;;;2.42;2.22;;;;;;;;;;5139301;27;20233;-62
2023/03/08 11:08:58;;;;;;;3.65;2.42;;;;;;;;;;5139297;27;20260;-62
2023/03/08 11:11:27;;;;;;;2.70;2.50;;;;;;;;;;5138774;27;20555;-63
2023/03/08 11:13:55;;;;;;;2.80;2.60;;;;;;;;;;5138718;27;20297;-62
2023/03/08 11:16:26;;;;;;;2.67;2.40;;;;;;;;;;5139180;27;20204;-62
2023/03/08 11:19:03;;;;;;;2.50;2.30;;;;;;;;;;5138587;27;20249;-62
2023/03/08 11:21:33;;;;;;;2.13;2.00;;;;;;;;;;5138388;27;20331;-62
2023/03/08 11:24:06;;;;;;;3.10;2.50;;;;;;;;;;5137310;27;20194;-62
2023/03/08 11:26:40;;;;;;;3.72;2.42;;;;;;;;;;5117781;28;20607;-62
2023/03/08 11:29:13;;;;;;;3.50;2.40;;;;;;;;;;5117709;28;20305;-62
2023/03/08 11:31:44;;;;;;;2.85;2.22;;;;;;;;;;5117721;28;20239;-62
2023/03/08 11:34:19;;;;;;;2.78;2.10;;;;;;;;;;5118108;28;20199;-62
2023/03/08 11:36:48;;;;;;;2.55;2.30;;;;;;;;;;5117133;28;20206;-62
2023/03/08 11:39:19;;;;;;;2.40;2.20;;;;;;;;;;5117525;28;20266;-62
2023/03/08 11:41:52;;;;;;;2.58;2.38;;;;;;;;;;5118024;28;20214;-62
2023/03/08 11:44:27;;;;;;;2.60;2.40;;;;;;;;;;5117356;28;20209;-61
2023/03/08 11:47:00;;;;;;;3.00;2.67;;;;;;;;;;5117936;28;20547;-62
2023/03/08 11:49:35;;;;;;;2.60;2.40;;;;;;;;;;5118400;28;20230;-62
2023/03/08 11:52:06;;;;;;;2.90;2.60;;;;;;;;;;5117738;28;20285;-62
2023/03/08 11:54:41;;;;;;;2.47;2.28;;;;;;;;;;5117809;28;20211;-62
2023/03/08 11:57:11;;;;;;;2.50;2.30;;;;;;;;;;5117984;28;20198;-62
2023/03/08 11:59:40;;;;;;;2.40;2.20;;;;;;;;;;5117449;28;20299;-62
2023/03/08 12:02:12;;;;;;;2.33;2.13;;;;;;;;;;5117142;28;20297;-62
2023/03/08 12:04:44;;;;;;;2.55;2.30;;;;;;;;;;5116728;28;20210;-63
2023/03/08 12:07:17;;;;;;;2.60;2.40;;;;;;;;;;5117413;28;20840;-63
2023/03/08 12:09:48;;;;;;;2.38;2.17;;;;;;;;;;5117546;28;20721;-63
2023/03/08 12:12:21;;;;;;;2.20;2.00;;;;;;;;;;5117557;28;20230;-62
2023/03/08 12:14:52;;;;;;;2.45;2.25;;;;;;;;;;5117575;28;20479;-62
2023/03/08 12:17:21;;;;;;;2.70;2.50;;;;;;;;;;5117532;28;20206;-62
2023/03/08 12:19:50;;;;;;;2.35;2.15;;;;;;;;;;5117371;28;20684;-63
2023/03/08 12:22:32;;;;;;;2.30;2.10;;;;;;;;;;5116910;28;20210;-62
2023/03/08 12:25:04;;;;;;;2.63;2.38;;;;;;;;;;5116753;28;20213;-62
2023/03/08 12:27:36;;;;;;;2.70;2.50;;;;;;;;;;5115557;28;20227;-62
2023/03/08 12:30:12;;;;;;;2.67;2.20;;;;;;;;;;5116166;28;20297;-63
2023/03/08 12:32:40;;;;;;;2.28;2.08;;;;;;;;;;5116247;28;20606;-62
2023/03/08 12:35:24;;;;;;;2.40;2.20;;;;;;;;;;5116590;28;20245;-62
2023/03/08 12:37:55;;;;;;;2.13;1.95;;;;;;;;;;5115497;28;20194;-62
2023/03/08 12:40:31;;;;;;;2.83;2.30;;;;;;;;;;5115855;28;20198;-62
2023/03/08 12:43:10;;;;;;;2.10;1.98;;;;;;;;;;5115268;28;20230;-62
2023/03/08 12:45:38;;;;;;;2.25;2.05;;;;;;;;;;5115515;28;20217;-63
2023/03/08 12:48:16;;;;;;;2.30;2.10;;;;;;;;;;5115531;28;20223;-62
2023/03/08 12:50:45;;;;;;;2.40;2.20;;;;;;;;;;5115571;28;20301;-62
2023/03/08 12:53:23;;;;;;;2.40;2.20;;;;;;;;;;5116669;28;20302;-62
2023/03/08 12:56:00;;;;;;;2.42;2.22;;;;;;;;;;5116535;28;20198;-63
2023/03/08 12:58:32;;;;;;;2.35;2.13;;;;;;;;;;5117981;28;20678;-62
2023/03/08 13:01:02;;;;;;;2.05;1.85;;;;;;;;;;5116443;28;20209;-62
2023/03/08 13:03:30;;;;;;;2.55;2.35;;;;;;;;;;5116662;28;20203;-62
2023/03/08 13:05:58;;;;;;;2.30;2.10;;;;;;;;;;5116534;28;20281;-61
2023/03/08 13:08:32;;;;;;;2.25;2.05;;;;;;;;;;5115846;28;20309;-62
2023/03/08 13:11:06;;;;;;;2.13;1.83;;;;;;;;;;5116174;28;20262;-63
2023/03/08 13:13:40;;;;;;;2.28;2.08;;;;;;;;;;5117007;28;20516;-62
2023/03/08 13:16:18;;;;;;;2.50;2.30;;;;;;;;;;5115037;28;20211;-62
2023/03/08 13:18:47;;;;;;;2.20;2.00;;;;;;;;;;5115923;28;20195;-62
2023/03/08 13:21:21;;;;;;;2.58;2.33;;;;;;;;;;5115079;28;20301;-62
2023/03/08 13:23:50;;;;;;;2.50;2.30;;;;;;;;;;5115277;28;20250;-62
2023/03/08 13:26:34;;;;;;;2.15;1.95;;;;;;;;;;5115030;28;20602;-62
2023/03/08 13:29:03;;;;;;;2.35;2.15;;;;;;;;;;5114971;28;20221;-62
2023/03/08 13:31:31;;;;;;;2.08;1.98;;;;;;;;;;5114624;28;20234;-62
2023/03/08 13:34:01;;;;;;;2.50;2.30;;;;;;;;;;5114989;28;20286;-63
2023/03/08 13:36:29;;;;;;;2.10;1.95;;;;;;;;;;5114778;28;20305;-62
2023/03/08 13:38:57;;;;;;;2.20;2.00;;;;;;;;;;5115391;28;20311;-62
2023/03/08 13:41:35;;;;;;;1.90;1.80;;;;;;;;;;5115611;28;20290;-62
2023/03/08 13:44:04;;;;;;;2.00;1.90;;;;;;;;;;5114564;28;20194;-62
2023/03/08 13:46:32;;;;;;;2.10;1.98;;;;;;;;;;5115393;28;20207;-62
2023/03/08 13:49:01;;;;;;;2.00;1.90;;;;;;;;;;5114703;28;20213;-63
2023/03/08 13:51:29;;;;;;;2.05;1.80;;;;;;;;;;5114957;28;20213;-62
2023/03/08 13:53:57;;;;;;;2.15;1.95;;;;;;;;;;5115259;28;20319;-63
2023/03/08 13:56:25;;;;;;;2.25;2.05;;;;;;;;;;5115782;28;20238;-62
2023/03/08 13:58:53;;;;;;;2.20;2.08;;;;;;;;;;5115587;28;20221;-67
2023/03/08 14:01:22;;;;;;;2.28;2.08;;;;;;;;;;5115788;28;20238;-62
2023/03/08 14:03:51;;;;;;;2.10;2.00;;;;;;;;;;5114186;28;20314;-63
2023/03/08 14:06:19;;;;;;;2.03;1.83;;;;;;;;;;5113884;28;20305;-63
2023/03/08 14:08:47;;;;;;;2.13;1.95;;;;;;;;;;5121247;27;20226;-63
2023/03/08 14:11:16;;;;;;;2.05;1.92;;;;;;;;;;5135301;28;20201;-62
2023/03/08 14:13:46;;;;;;;2.00;1.90;;;;;;;;;;5135658;28;20657;-62
2023/03/08 14:16:25;;;;;;;2.00;1.90;;;;;;;;;;5135301;28;20270;-62
2023/03/08 14:18:53;;;;;;;2.17;1.98;;;;;;;;;;5136204;28;20197;-62
2023/03/08 14:21:21;;;;;;;2.13;1.92;;;;;;;;;;5134711;28;20489;-62
2023/03/08 14:23:50;;;;;;;2.50;1.90;;;;;;;;;;5134896;28;20194;-62
2023/03/08 14:26:25;;;;;;;1.95;1.80;;;;;;;;;;5135448;27;20246;-62
2023/03/08 14:29:03;;;;;;;2.03;1.83;;;;;;;;;;5139135;27;20225;-62
2023/03/08 14:31:31;;;;;;;1.80;1.70;;;;;;;;;;5139438;27;20194;-62
2023/03/08 14:34:00;;;;;;;1.70;1.60;;;;;;;;;;5138676;27;20614;-62
2023/03/08 14:36:29;;;;;;;2.00;1.90;;;;;;;;;;5140009;27;20241;-62
2023/03/08 14:38:58;;;;;;;2.35;1.77;;;;;;;;;;5140387;27;20281;-62
2023/03/08 14:41:33;;;;;;;1.98;1.63;;;;;;;;;;5139336;27;20194;-62
2023/03/08 14:44:01;;;;;;;2.72;1.90;;;;;;;;;;5139607;27;20202;-62
2023/03/08 14:46:28;;;;;;;1.77;1.63;;;;;;;;;;5138540;27;20490;-62
2023/03/08 14:49:01;;;;;;;1.70;1.60;;;;;;;;;;5139469;27;20222;-62
2023/03/08 14:51:30;;;;;;;1.90;1.80;;;;;;;;;;5138943;27;20204;-62
2023/03/08 14:53:59;;;;;;;1.70;1.60;;;;;;;;;;5139116;27;20305;-62